Time;durP1;ratioP1;P1;durP2;ratioP2;P2;SDS_P1;SDS_P2;PMS_P1;PMS_P2;Temp;Humidity;BMP_temperature;BMP_pressure;BME280_temperature;BME280_humidity;BME280_pressure;Samples;Min_cycle;Max_cycle;Signal;HPM_P1;HPM_P2
2021/01/27 00:00:36;;;;;;;3.53;1.93;;;;;;;-0.19;100.00;94987.16;4957536;28;20198;-93
2021/01/27 00:03:04;;;;;;;2.23;2.03;;;;;;;-0.25;100.00;94986.69;4957361;29;20201;-94
2021/01/27 00:05:33;;;;;;;2.30;2.10;;;;;;;-0.16;100.00;94976.59;4957278;28;20205;-94
2021/01/27 00:08:01;;;;;;;1.90;1.80;;;;;;;-0.08;100.00;94980.16;4956938;28;20237;-93
2021/01/27 00:10:28;;;;;;;1.70;1.60;;;;;;;-0.07;100.00;94978.38;4957256;28;20198;-93
2021/01/27 00:12:56;;;;;;;1.93;1.63;;;;;;;-0.05;100.00;94971.34;4957394;28;20633;-93
2021/01/27 00:15:27;;;;;;;1.80;1.70;;;;;;;0.10;100.00;94967.50;4957564;28;20229;-93
2021/01/27 00:17:55;;;;;;;1.40;1.30;;;;;;;0.06;100.00;94952.38;4956722;29;20277;-92
2021/01/27 00:20:25;;;;;;;1.00;1.00;;;;;;;0.07;100.00;94965.19;4957223;28;20213;-94
2021/01/27 00:22:52;;;;;;;1.43;1.33;;;;;;;0.11;100.00;94952.84;4956854;29;20198;-93
2021/01/27 00:25:22;;;;;;;1.47;1.37;;;;;;;0.04;100.00;94941.38;4957342;28;20202;-95
2021/01/27 00:27:49;;;;;;;1.40;1.30;;;;;;;0.12;100.00;94947.53;4956740;29;20270;-93
2021/01/27 00:30:18;;;;;;;1.00;1.00;;;;;;;0.11;100.00;94932.97;4957055;29;20197;-92
2021/01/27 00:32:44;;;;;;;1.27;1.17;;;;;;;0.16;100.00;94922.25;4957088;29;20222;-92
2021/01/27 00:35:13;;;;;;;1.10;1.10;;;;;;;0.09;100.00;94926.28;4956824;29;20198;-94
2021/01/27 00:37:40;;;;;;;0.93;0.93;;;;;;;0.03;100.00;94930.19;4956678;28;20202;-93
2021/01/27 00:40:09;;;;;;;1.30;1.20;;;;;;;0.06;100.00;94916.22;4956918;28;20206;-92
2021/01/27 00:42:36;;;;;;;0.90;0.90;;;;;;;0.08;100.00;94917.72;4956697;29;20309;-94
2021/01/27 00:45:05;;;;;;;1.00;1.00;;;;;;;0.18;100.00;94915.22;4956781;28;20216;-92
2021/01/27 00:47:31;;;;;;;1.60;1.10;;;;;;;0.01;100.00;94903.69;4956730;29;20248;-92
2021/01/27 00:49:58;;;;;;;1.17;1.10;;;;;;;0.11;100.00;94914.09;4956717;28;20198;-92
2021/01/27 00:52:26;;;;;;;1.23;1.20;;;;;;;-0.02;100.00;94940.09;4956601;29;20206;-93
2021/01/27 00:54:53;;;;;;;1.20;1.10;;;;;;;0.04;100.00;94929.28;4956491;28;20206;-92
2021/01/27 00:57:20;;;;;;;0.97;0.97;;;;;;;0.01;100.00;94921.78;4956335;29;20239;-92
2021/01/27 00:59:46;;;;;;;1.27;1.17;;;;;;;0.10;100.00;94910.66;4956314;28;20288;-92
2021/01/27 01:02:13;;;;;;;0.80;0.80;;;;;;;0.08;100.00;94922.91;4956089;28;20277;-92
2021/01/27 01:04:40;;;;;;;1.70;1.20;;;;;;;0.18;100.00;94910.84;4956416;29;20643;-92
2021/01/27 01:07:07;;;;;;;1.00;1.00;;;;;;;0.11;100.00;94901.97;4956050;28;20197;-93
2021/01/27 01:09:35;;;;;;;0.80;0.80;;;;;;;0.14;100.00;94908.63;4956012;29;20212;-93
2021/01/27 01:12:02;;;;;;;0.80;0.80;;;;;;;0.11;100.00;94894.22;4956250;29;20607;-92
2021/01/27 01:14:29;;;;;;;1.07;0.97;;;;;;;0.12;100.00;94889.88;4956056;29;20674;-92
2021/01/27 01:16:56;;;;;;;1.13;1.13;;;;;;;0.08;100.00;94884.16;4955994;28;20194;-91
2021/01/27 01:19:23;;;;;;;1.10;1.00;;;;;;;0.00;100.00;94876.22;4956124;28;20208;-91
2021/01/27 01:21:49;;;;;;;0.70;0.70;;;;;;;-0.03;100.00;94871.31;4956010;28;20208;-91
2021/01/27 01:24:17;;;;;;;0.80;0.80;;;;;;;0.00;100.00;94878.81;4955870;28;20198;-91
2021/01/27 01:26:45;;;;;;;0.80;0.80;;;;;;;-0.09;100.00;94871.81;4956019;29;20229;-91
2021/01/27 01:29:12;;;;;;;1.00;1.00;;;;;;;-0.03;100.00;94877.31;4955477;28;20617;-91
2021/01/27 01:31:38;;;;;;;1.00;1.00;;;;;;;-0.07;100.00;94875.09;4955842;29;20237;-92
2021/01/27 01:34:05;;;;;;;1.07;1.07;;;;;;;-0.07;100.00;94863.00;4955637;28;20206;-92
2021/01/27 01:36:32;;;;;;;1.20;1.10;;;;;;;-0.15;100.00;94859.41;4955635;28;20293;-91
2021/01/27 01:38:59;;;;;;;1.10;1.10;;;;;;;-0.18;100.00;94855.31;4955580;28;20205;-89
2021/01/27 01:41:26;;;;;;;1.00;1.00;;;;;;;-0.20;100.00;94856.41;4955472;29;20201;-92
2021/01/27 01:43:53;;;;;;;1.30;1.20;;;;;;;-0.16;100.00;94853.44;4955745;29;20252;-91
2021/01/27 01:46:24;;;;;;;1.70;0.90;;;;;;;-0.23;100.00;94865.22;4955727;28;20212;-91
2021/01/27 01:48:54;;;;;;;0.80;0.80;;;;;;;-0.30;100.00;94858.94;4955283;29;20248;-91
2021/01/27 01:51:26;;;;;;;0.73;0.73;;;;;;;-0.27;100.00;94863.84;4955741;29;20190;-92
2021/01/27 01:53:56;;;;;;;0.80;0.80;;;;;;;-0.29;100.00;94866.53;4955441;29;20277;-90
2021/01/27 01:56:27;;;;;;;1.13;1.13;;;;;;;-0.34;100.00;94870.47;4955672;29;20683;-91
2021/01/27 01:58:57;;;;;;;1.03;1.03;;;;;;;-0.27;100.00;94869.81;4955177;29;20190;-90
2021/01/27 02:01:24;;;;;;;1.03;0.90;;;;;;;-0.31;100.00;94876.19;4955411;28;20721;-91
2021/01/27 02:03:53;;;;;;;1.17;1.17;;;;;;;-0.33;100.00;94875.50;4955161;28;20201;-91
2021/01/27 02:06:20;;;;;;;1.37;1.00;;;;;;;-0.34;100.00;94858.38;4955512;29;20201;-90
2021/01/27 02:08:51;;;;;;;0.90;0.90;;;;;;;-0.35;100.00;94855.91;4954949;29;20231;-91
2021/01/27 02:11:21;;;;;;;0.80;0.80;;;;;;;-0.31;100.00;94850.38;4955069;29;20276;-91
2021/01/27 02:14:04;;;;;;;0.80;0.80;;;;;;;-0.46;100.00;94853.38;4955389;29;20245;-91
2021/01/27 02:16:41;;;;;;;0.80;0.80;;;;;;;-0.49;100.00;94849.28;4955286;29;20573;-91
2021/01/27 02:19:34;;;;;;;1.10;1.10;;;;;;;-0.41;100.00;94844.34;4955236;29;20206;-91
2021/01/27 02:22:33;;;;;;;1.17;1.17;;;;;;;-0.44;100.00;94836.84;4955133;29;20742;-93
2021/01/27 02:25:50;;;;;;;0.80;0.80;;;;;;;-0.50;100.00;94827.00;4948595;29;20582;-91
2021/01/27 02:28:39;;;;;;;1.37;1.27;;;;;;;-0.57;100.00;94828.47;4936166;29;20309;-92
2021/01/27 02:31:15;;;;;;;1.20;1.10;;;;;;;-0.44;100.00;94841.19;4933673;29;20198;-92
2021/01/27 02:34:23;;;;;;;0.87;0.87;;;;;;;-0.42;100.00;94839.28;4936014;29;20273;-92
2021/01/27 02:36:56;;;;;;;0.97;0.97;;;;;;;-0.57;100.00;94851.69;4916569;29;20210;-92
2021/01/27 02:39:27;;;;;;;1.00;1.00;;;;;;;-0.54;100.00;94857.41;4936381;29;20553;-91
2021/01/27 02:41:58;;;;;;;1.30;1.20;;;;;;;-0.57;100.00;94872.34;4939527;29;20201;-92
2021/01/27 02:44:33;;;;;;;1.77;1.00;;;;;;;-0.49;100.00;94854.44;4939843;29;20187;-92
2021/01/27 02:47:03;;;;;;;1.23;1.00;;;;;;;-0.40;100.00;94851.13;4939483;29;20190;-92
2021/01/27 02:49:37;;;;;;;0.90;0.90;;;;;;;-0.52;100.00;94859.88;4939462;29;20210;-91
2021/01/27 02:52:12;;;;;;;1.00;1.00;;;;;;;-0.45;100.00;94855.88;4939474;29;20194;-92
2021/01/27 02:54:44;;;;;;;1.30;1.00;;;;;;;-0.49;100.00;94868.16;4939692;29;20218;-91
2021/01/27 02:57:18;;;;;;;1.47;1.37;;;;;;;-0.53;100.00;94858.22;4939783;29;20198;-90
2021/01/27 02:59:53;;;;;;;1.80;1.30;;;;;;;-0.51;100.00;94872.66;4939898;29;20190;-91
2021/01/27 03:02:25;;;;;;;1.27;1.17;;;;;;;-0.52;100.00;94854.69;4939496;29;20209;-92
2021/01/27 03:05:00;;;;;;;1.10;1.07;;;;;;;-0.46;100.00;94874.84;4939238;29;20191;-91
2021/01/27 03:07:30;;;;;;;1.33;1.23;;;;;;;-0.45;100.00;94873.94;4939099;29;20194;-92
2021/01/27 03:10:02;;;;;;;1.20;1.10;;;;;;;-0.53;100.00;94891.78;4938951;29;20206;-91
2021/01/27 03:12:29;;;;;;;1.33;1.13;;;;;;;-0.56;100.00;94889.44;4939243;29;20242;-91
2021/01/27 03:14:56;;;;;;;1.30;1.20;;;;;;;-0.60;100.00;94878.56;4939002;29;20691;-91
2021/01/27 03:17:28;;;;;;;1.30;1.20;;;;;;;-0.64;100.00;94904.75;4939044;29;20210;-90
2021/01/27 03:20:00;;;;;;;1.40;1.30;;;;;;;-0.62;100.00;94920.94;4938875;29;20199;-91
2021/01/27 03:22:35;;;;;;;1.10;0.90;;;;;;;-0.64;100.00;94910.72;4939179;29;20191;-92
2021/01/27 03:25:08;;;;;;;1.00;1.00;;;;;;;-0.63;100.00;94919.28;4938799;29;20643;-92
2021/01/27 03:27:42;;;;;;;1.53;1.43;;;;;;;-0.48;100.00;94918.06;4953035;29;20269;-92
2021/01/27 03:30:12;;;;;;;2.20;1.20;;;;;;;-0.47;100.00;94926.63;4958132;29;20222;-91
2021/01/27 03:32:46;;;;;;;1.50;1.40;;;;;;;-0.56;100.00;94931.56;4958748;29;20205;-91
2021/01/27 03:35:22;;;;;;;1.10;1.00;;;;;;;-0.52;100.00;94952.78;4958217;29;20190;-90
2021/01/27 03:37:56;;;;;;;1.33;1.27;;;;;;;-0.60;100.00;94942.25;4957913;29;20237;-91
2021/01/27 03:40:24;;;;;;;1.30;1.20;;;;;;;-0.55;100.00;94953.88;4958134;29;20209;-91
2021/01/27 03:43:06;;;;;;;1.17;1.17;;;;;;;-0.61;100.00;94956.94;4957829;29;20289;-90
2021/01/27 03:45:37;;;;;;;1.77;1.50;;;;;;;-0.57;100.00;94949.75;4957627;29;20197;-93
2021/01/27 03:48:11;;;;;;;2.10;1.87;;;;;;;-0.64;100.00;94956.34;4957485;29;20213;-92
2021/01/27 03:50:40;;;;;;;3.53;2.67;;;;;;;-0.74;100.00;94954.50;4957366;28;20279;-91
2021/01/27 03:53:13;;;;;;;3.03;2.30;;;;;;;-0.60;100.00;94960.31;4957771;28;20232;-91
2021/01/27 03:55:48;;;;;;;2.00;1.80;;;;;;;-0.55;100.00;94943.53;4957330;29;20186;-91
2021/01/27 03:58:19;;;;;;;1.93;1.63;;;;;;;-0.61;100.00;94944.03;4957462;29;20261;-90
2021/01/27 04:00:46;;;;;;;2.53;2.33;;;;;;;-0.61;100.00;94943.22;4957902;29;20218;-90
2021/01/27 04:03:17;;;;;;;1.93;1.60;;;;;;;-0.59;100.00;94942.16;4957534;29;20202;-91
2021/01/27 04:05:44;;;;;;;2.67;2.10;;;;;;;-0.67;100.00;94941.13;4957804;29;20663;-90
2021/01/27 04:08:12;;;;;;;2.07;1.70;;;;;;;-0.62;100.00;94936.41;4957362;28;20260;-90
2021/01/27 04:10:39;;;;;;;1.17;1.17;;;;;;;-0.65;100.00;94931.50;4957257;28;20679;-90
2021/01/27 04:13:06;;;;;;;1.83;1.73;;;;;;;-0.65;100.00;94936.66;4957363;29;20194;-90
2021/01/27 04:15:33;;;;;;;2.20;1.80;;;;;;;-0.73;100.00;94932.09;4956826;28;20194;-91
2021/01/27 04:18:00;;;;;;;1.97;1.50;;;;;;;-0.67;100.00;94921.28;4957007;28;20205;-90
2021/01/27 04:20:28;;;;;;;0.97;0.97;;;;;;;-0.67;100.00;94928.22;4957227;28;20205;-90
2021/01/27 04:22:55;;;;;;;8.33;3.73;;;;;;;-0.60;100.00;94913.88;4956920;28;20197;-91
2021/01/27 04:25:23;;;;;;;1.10;1.10;;;;;;;-0.56;100.00;94912.69;4957109;29;20209;-91
2021/01/27 04:27:50;;;;;;;1.27;0.90;;;;;;;-0.47;100.00;94899.03;4956486;28;20234;-91
2021/01/27 04:30:20;;;;;;;1.20;1.20;;;;;;;-0.52;100.00;94899.41;4957058;28;20208;-91
2021/01/27 04:32:47;;;;;;;2.33;1.70;;;;;;;-0.64;100.00;94897.00;4957201;29;20227;-90
2021/01/27 04:35:15;;;;;;;1.00;1.00;;;;;;;-0.47;100.00;94893.06;4956851;28;20213;-90
2021/01/27 04:37:42;;;;;;;1.57;1.47;;;;;;;-0.33;100.00;94901.31;4956605;28;20288;-90
2021/01/27 04:40:11;;;;;;;1.50;1.40;;;;;;;-0.39;100.00;94908.72;4956932;28;20197;-90
2021/01/27 04:42:39;;;;;;;1.03;1.03;;;;;;;-0.36;100.00;94906.72;4956788;29;20288;-90
2021/01/27 04:48:24;;;;;;;0.97;0.97;;;;;;;-0.51;100.00;94905.41;4955646;29;20245;-91
2021/01/27 04:50:55;;;;;;;1.60;1.50;;;;;;;-0.54;100.00;94895.31;4956827;29;20661;-93
2021/01/27 04:53:38;;;;;;;1.30;1.20;;;;;;;-0.69;100.00;94891.38;4956243;29;20252;-91
2021/01/27 04:56:34;;;;;;;1.50;1.40;;;;;;;-0.54;100.00;94885.81;4956591;29;20291;-92
2021/01/27 04:59:12;;;;;;;1.50;1.40;;;;;;;-0.58;100.00;94857.81;4950285;29;20212;-92
2021/01/27 05:02:13;;;;;;;1.50;1.40;;;;;;;-0.73;100.00;94894.22;4956181;28;20182;-93
2021/01/27 05:04:54;;;;;;;6.43;4.67;;;;;;;-0.63;100.00;94888.31;4956335;29;20193;-93
2021/01/27 05:07:27;;;;;;;1.80;1.70;;;;;;;-0.67;100.00;94898.06;4956442;29;20192;-93
2021/01/27 05:09:58;;;;;;;3.37;2.93;;;;;;;-0.72;100.00;94905.38;4956259;29;20272;-92
2021/01/27 05:12:37;;;;;;;1.50;1.40;;;;;;;-0.67;100.00;94897.25;4956641;29;20189;-92
2021/01/27 05:15:06;;;;;;;2.00;1.90;;;;;;;-0.78;100.00;94908.44;4956190;29;20297;-93
2021/01/27 05:17:33;;;;;;;1.67;1.57;;;;;;;-0.85;100.00;94913.25;4955883;29;20715;-92
2021/01/27 05:20:00;;;;;;;1.30;1.20;;;;;;;-0.92;100.00;94919.84;4955868;28;20193;-92
2021/01/27 05:22:28;;;;;;;1.87;1.70;;;;;;;-0.80;100.00;94931.75;4955841;28;20206;-90
2021/01/27 05:24:55;;;;;;;2.30;1.80;;;;;;;-0.73;100.00;94930.34;4956028;28;20198;-93
2021/01/27 05:27:29;;;;;;;1.67;1.57;;;;;;;-0.62;100.00;94931.25;4955733;28;20302;-91
2021/01/27 05:30:03;;;;;;;1.97;1.83;;;;;;;-0.76;100.00;94946.06;4955944;29;20194;-93
2021/01/27 05:32:48;;;;;;;2.33;1.73;;;;;;;-0.76;100.00;94946.06;4956352;29;20652;-93
2021/01/27 05:35:25;;;;;;;1.87;1.63;;;;;;;-0.87;100.00;94933.19;4956608;29;20192;-89
2021/01/27 05:37:52;;;;;;;2.17;1.97;;;;;;;-0.89;100.00;94932.50;4955379;29;20201;-92
2021/01/27 05:40:29;;;;;;;2.30;2.10;;;;;;;-0.89;100.00;94919.63;4955639;28;20291;-92
2021/01/27 05:42:56;;;;;;;1.23;1.10;;;;;;;-0.86;100.00;94923.72;4955905;29;20256;-91
2021/01/27 05:45:34;;;;;;;2.27;1.93;;;;;;;-0.86;100.00;94898.72;4955494;28;20225;-91
2021/01/27 05:48:26;;;;;;;3.17;2.50;;;;;;;-0.89;100.00;94903.31;4955687;29;20213;-94
2021/01/27 05:50:54;;;;;;;3.33;2.97;;;;;;;-0.94;100.00;94913.16;4946957;29;20198;-93
2021/01/27 05:53:23;;;;;;;3.10;2.70;;;;;;;-0.85;100.00;94926.16;4956229;29;20205;-92
2021/01/27 05:56:04;;;;;;;1.70;1.60;;;;;;;-0.92;100.00;94927.59;4955790;29;20198;-93
2021/01/27 05:58:33;;;;;;;3.30;2.43;;;;;;;-0.86;100.00;94929.69;4955727;29;20622;-92
2021/01/27 06:01:21;;;;;;;6.30;3.30;;;;;;;-0.89;100.00;94935.09;4955452;29;20208;-92
2021/01/27 06:04:01;;;;;;;1.80;1.70;;;;;;;-0.89;100.00;94937.66;4955496;29;20201;-93
2021/01/27 06:06:32;;;;;;;2.30;2.03;;;;;;;-0.84;100.00;94945.03;4955347;29;20218;-93
2021/01/27 06:09:01;;;;;;;1.60;1.50;;;;;;;-0.80;100.00;94949.81;4955208;29;20261;-92
2021/01/27 06:11:28;;;;;;;1.37;1.23;;;;;;;-0.81;100.00;94940.44;4955303;28;20285;-92
2021/01/27 06:14:08;;;;;;;1.73;1.43;;;;;;;-0.86;100.00;94941.78;4954491;28;20213;-92
2021/01/27 06:16:41;;;;;;;1.73;1.60;;;;;;;-0.79;100.00;94950.66;4955311;29;20186;-91
2021/01/27 06:19:17;;;;;;;1.53;1.43;;;;;;;-0.74;100.00;94954.50;4955296;29;20221;-93
2021/01/27 06:22:17;;;;;;;1.97;1.77;;;;;;;-0.83;100.00;94950.09;4955170;29;20193;-92
2021/01/27 06:25:02;;;;;;;1.60;1.50;;;;;;;-0.79;100.00;94968.72;4955423;29;20657;-93
2021/01/27 06:27:53;;;;;;;1.83;1.70;;;;;;;-0.75;100.00;94955.44;4954951;28;20225;-92
2021/01/27 06:30:24;;;;;;;1.93;1.80;;;;;;;-0.82;100.00;94935.41;4916497;29;20271;-93
2021/01/27 06:33:24;;;;;;;2.00;1.90;;;;;;;-0.89;100.00;94942.00;4955253;29;20212;-92
2021/01/27 06:36:09;;;;;;;1.80;1.70;;;;;;;-0.78;100.00;94940.22;4935806;28;20288;-91
2021/01/27 06:38:58;;;;;;;1.63;1.53;;;;;;;-0.84;100.00;94943.25;4954936;29;20205;-92
2021/01/27 06:41:37;;;;;;;1.60;1.50;;;;;;;-0.63;100.00;94939.91;4954712;29;20277;-93
2021/01/27 06:44:31;;;;;;;2.00;1.70;;;;;;;-0.73;100.00;94957.88;4954846;29;20189;-92
2021/01/27 06:47:21;;;;;;;2.83;1.80;;;;;;;-0.59;100.00;94960.22;4952206;29;20209;-92
2021/01/27 06:50:18;;;;;;;2.43;1.87;;;;;;;-0.68;100.00;94967.88;4954682;29;20206;-92
2021/01/27 06:53:17;;;;;;;15.47;8.70;;;;;;;-0.69;100.00;94976.53;4955092;29;20212;-92
2021/01/27 06:55:58;;;;;;;7.73;6.40;;;;;;;-0.66;100.00;94961.63;4950166;29;20214;-89
2021/01/27 06:58:55;;;;;;;2.07;1.90;;;;;;;-0.63;100.00;94957.97;4954884;29;20570;-89
2021/01/27 07:01:53;;;;;;;1.40;1.30;;;;;;;-0.72;100.00;94962.13;4954582;29;20193;-89
2021/01/27 07:04:47;;;;;;;2.03;1.90;;;;;;;-0.74;100.00;94988.03;4954988;29;20640;-89
2021/01/27 07:08:01;;;;;;;2.20;0.90;;;;;;;-0.82;100.00;95000.72;4938560;29;20237;-91
2021/01/27 07:10:45;;;;;;;2.57;2.37;;;;;;;-0.81;100.00;94991.22;4896097;29;20208;-92
2021/01/27 07:13:33;;;;;;;3.10;2.20;;;;;;;-0.86;100.00;94977.88;4896623;29;20581;-91
2021/01/27 07:16:03;;;;;;;2.47;2.10;;;;;;;-0.79;100.00;94972.13;4937177;29;20205;-91
2021/01/27 07:21:22;;;;;;;1.70;1.60;;;;;;;-0.66;100.00;94960.81;5082579;23;20237;-91
2021/01/27 07:23:57;;;;;;;2.87;2.40;;;;;;;-0.62;100.00;94973.34;4954974;29;20646;-92
2021/01/27 07:26:27;;;;;;;2.77;2.30;;;;;;;-0.67;100.00;94966.91;4957254;28;20272;-91
2021/01/27 07:29:01;;;;;;;2.07;1.90;;;;;;;-0.68;100.00;94960.13;4959635;29;20666;-92
2021/01/27 07:31:33;;;;;;;1.00;1.00;;;;;;;-0.66;100.00;94964.19;4958612;29;20281;-91
2021/01/27 07:34:06;;;;;;;1.40;1.30;;;;;;;-0.51;100.00;94955.25;4959088;29;20570;-91
2021/01/27 07:36:44;;;;;;;1.40;1.30;;;;;;;-0.55;100.00;94953.03;4959238;29;20205;-91
2021/01/27 07:39:16;;;;;;;1.87;1.77;;;;;;;-0.50;100.00;94956.06;4959080;29;20186;-90
2021/01/27 07:42:12;;;;;;;2.10;1.90;;;;;;;-0.39;100.00;94956.00;4958060;29;20551;-90
2021/01/27 07:44:43;;;;;;;4.13;3.13;;;;;;;-0.35;100.00;94957.41;5170838;23;20612;-91
2021/01/27 07:47:22;;;;;;;5.20;4.70;;;;;;;-0.45;100.00;94964.28;4930609;29;20206;-91
2021/01/27 07:49:56;;;;;;;3.03;2.50;;;;;;;-0.37;100.00;94977.38;5204350;23;20296;-92
2021/01/27 07:52:29;;;;;;;2.80;2.30;;;;;;;-0.33;100.00;94968.44;4932997;29;20222;-91
2021/01/27 07:55:05;;;;;;;2.90;2.60;;;;;;;-0.35;100.00;94974.66;5184441;23;20238;-90
2021/01/27 07:57:43;;;;;;;5.43;4.90;;;;;;;-0.31;100.00;94971.72;4931463;29;20233;-91
2021/01/27 08:00:17;;;;;;;4.40;2.93;;;;;;;-0.28;100.00;94981.81;4936993;29;20710;-90
2021/01/27 08:02:58;;;;;;;2.23;1.97;;;;;;;-0.27;100.00;94993.75;4937571;29;20215;-91
2021/01/27 08:05:27;;;;;;;1.63;1.53;;;;;;;-0.29;100.00;94987.88;4937756;29;20227;-90
2021/01/27 08:08:02;;;;;;;1.43;1.33;;;;;;;-0.36;100.00;94994.50;4938066;29;20202;-90
2021/01/27 08:10:31;;;;;;;2.27;1.97;;;;;;;-0.49;100.00;94988.66;4938044;29;20194;-90
2021/01/27 08:13:02;;;;;;;1.60;1.50;;;;;;;-0.42;100.00;94999.31;4938468;29;20207;-90
2021/01/27 08:15:45;;;;;;;1.60;1.13;;;;;;;-0.49;100.00;94999.00;4937768;29;20293;-91
2021/01/27 08:18:17;;;;;;;1.90;1.80;;;;;;;-0.50;100.00;94990.44;4938264;29;20183;-90
2021/01/27 08:20:46;;;;;;;2.37;2.17;;;;;;;-0.42;100.00;94989.81;4938145;29;20243;-90
2021/01/27 08:23:47;;;;;;;2.63;2.23;;;;;;;-0.52;100.00;94989.75;4938261;29;20207;-89
2021/01/27 08:26:50;;;;;;;2.07;1.87;;;;;;;-0.42;100.00;95005.28;4937764;29;20195;-90
2021/01/27 08:34:57;;;;;;;5.47;3.07;;;;;;;-0.14;100.00;95039.22;5132022;23;20258;-92
2021/01/27 08:37:27;;;;;;;5.27;3.80;;;;;;;-0.08;100.00;95038.75;4953030;28;20205;-91
2021/01/27 08:40:14;;;;;;;3.60;2.77;;;;;;;-0.26;100.00;95039.28;4957113;29;20201;-91
2021/01/27 08:42:45;;;;;;;3.67;3.10;;;;;;;-0.34;100.00;95052.00;4956525;29;20197;-91
2021/01/27 08:45:18;;;;;;;3.00;2.70;;;;;;;-0.30;100.00;95037.09;4956454;29;20189;-91
2021/01/27 08:47:46;;;;;;;2.40;2.20;;;;;;;-0.32;100.00;95023.47;4956524;29;20254;-91
2021/01/27 08:50:42;;;;;;;2.70;2.50;;;;;;;-0.29;100.00;95036.13;4956344;28;20202;-91
2021/01/27 08:53:11;;;;;;;2.50;2.30;;;;;;;-0.53;100.00;95028.56;4956673;29;20194;-91
2021/01/27 08:55:54;;;;;;;2.60;2.40;;;;;;;-0.29;100.00;95031.78;4956544;29;20202;-91
2021/01/27 08:58:37;;;;;;;3.77;2.33;;;;;;;-0.17;100.00;95031.72;4956503;29;20186;-91
2021/01/27 09:01:10;;;;;;;2.43;2.23;;;;;;;-0.19;100.00;95033.63;4956310;29;20198;-91
2021/01/27 09:03:54;;;;;;;4.53;3.03;;;;;;;-0.26;100.00;95036.69;4956645;29;20292;-91
2021/01/27 09:06:27;;;;;;;2.93;2.13;;;;;;;-0.31;100.00;95048.34;4955103;29;20248;-91
2021/01/27 09:09:07;;;;;;;3.50;3.20;;;;;;;-0.15;100.00;95022.94;4956050;29;20209;-91
2021/01/27 09:11:34;;;;;;;5.83;3.80;;;;;;;-0.17;100.00;95029.16;4956186;29;20228;-91
2021/01/27 09:14:05;;;;;;;3.47;3.10;;;;;;;-0.24;100.00;95015.94;4955750;29;20209;-91
2021/01/27 09:16:33;;;;;;;4.23;3.83;;;;;;;-0.03;100.00;95018.56;4956293;29;20315;-91
2021/01/27 09:19:04;;;;;;;4.47;3.30;;;;;;;0.09;100.00;95032.22;4955802;29;20248;-91
2021/01/27 09:21:33;;;;;;;3.73;2.33;;;;;;;0.07;100.00;95034.09;4956158;29;20570;-91
2021/01/27 09:24:03;;;;;;;5.50;4.33;;;;;;;-0.01;100.00;95045.06;4955867;28;20201;-91
2021/01/27 09:26:40;;;;;;;2.00;1.90;;;;;;;0.08;100.00;95034.00;4955778;29;20256;-91
2021/01/27 09:29:09;;;;;;;3.20;2.80;;;;;;;0.28;100.00;95034.94;4955559;29;20213;-92
2021/01/27 09:31:36;;;;;;;4.63;3.17;;;;;;;0.03;100.00;95038.69;4955885;28;20201;-91
2021/01/27 09:34:16;;;;;;;3.30;2.73;;;;;;;0.13;100.00;95043.94;4955701;29;20638;-91
2021/01/27 09:36:45;;;;;;;2.50;2.00;;;;;;;0.15;100.00;95049.81;4955735;29;20186;-91
2021/01/27 09:41:47;;;;;;;5.03;4.07;;;;;;;0.50;100.00;95054.66;5078532;23;20234;-90
2021/01/27 09:44:23;;;;;;;7.80;5.27;;;;;;;0.51;100.00;95060.66;5182722;23;20760;-90
2021/01/27 09:46:50;;;;;;;5.87;4.93;;;;;;;0.47;100.00;95071.25;4947805;29;20257;-91
2021/01/27 09:49:19;;;;;;;3.80;3.40;;;;;;;0.56;100.00;95077.44;4956732;28;20623;-92
2021/01/27 09:51:53;;;;;;;2.93;2.43;;;;;;;0.58;100.00;95072.94;5192498;23;20237;-92
2021/01/27 09:54:22;;;;;;;3.27;2.80;;;;;;;0.61;100.00;95079.63;4940540;29;20205;-93
2021/01/27 09:56:52;;;;;;;3.93;2.67;;;;;;;0.69;100.00;95087.56;4935833;29;20266;-94
2021/01/27 09:59:21;;;;;;;2.30;2.20;;;;;;;0.80;100.00;95092.69;4937354;29;20667;-93
2021/01/27 10:01:49;;;;;;;2.47;2.27;;;;;;;0.67;100.00;95105.81;4936216;29;20641;-93
2021/01/27 10:04:30;;;;;;;6.70;4.33;;;;;;;0.83;100.00;95097.59;4936522;29;20203;-93
2021/01/27 10:07:08;;;;;;;2.20;2.10;;;;;;;0.78;100.00;95091.97;4935986;29;20202;-92
2021/01/27 10:12:19;;;;;;;1.70;1.60;;;;;;;0.63;100.00;95096.66;5047988;23;20245;-95
2021/01/27 10:14:48;;;;;;;2.10;1.70;;;;;;;0.51;100.00;95097.66;4936292;29;20288;-94
2021/01/27 10:17:15;;;;;;;2.00;1.77;;;;;;;0.54;100.00;95101.78;4935804;29;20234;-92
2021/01/27 10:19:48;;;;;;;2.00;1.90;;;;;;;0.40;100.00;95116.63;4935814;29;20649;-93
2021/01/27 10:22:27;;;;;;;3.37;2.80;;;;;;;0.47;100.00;95115.19;4936139;29;20187;-93
2021/01/27 10:24:59;;;;;;;2.30;1.40;;;;;;;0.42;100.00;95124.28;4935802;29;20205;-94
2021/01/27 10:27:34;;;;;;;3.53;2.23;;;;;;;0.45;100.00;95113.66;4935999;29;20202;-92
2021/01/27 10:30:04;;;;;;;3.13;2.87;;;;;;;0.56;100.00;95110.22;4935502;29;20253;-93
2021/01/27 10:32:38;;;;;;;3.40;2.67;;;;;;;0.48;100.00;95116.00;4935517;29;20203;-94
2021/01/27 10:35:28;;;;;;;1.93;1.50;;;;;;;0.49;100.00;95104.75;4935768;29;20217;-94
2021/01/27 10:38:17;;;;;;;1.87;1.77;;;;;;;0.53;100.00;95100.94;4936063;29;20223;-94
2021/01/27 10:41:19;;;;;;;3.03;1.87;;;;;;;0.53;100.00;95100.94;4935949;29;20643;-91
2021/01/27 10:43:46;;;;;;;1.73;1.63;;;;;;;0.63;100.00;95093.25;4931084;29;20202;-93
2021/01/27 10:46:28;;;;;;;1.80;1.70;;;;;;;0.70;100.00;95096.97;4935801;29;20205;-94
2021/01/27 10:48:55;;;;;;;1.03;1.03;;;;;;;0.57;100.00;95091.19;4935828;29;20246;-93
2021/01/27 10:51:23;;;;;;;1.50;1.40;;;;;;;0.53;100.00;95082.84;4935510;29;20194;-94
2021/01/27 10:56:25;;;;;;;1.80;1.70;;;;;;;0.78;100.00;95080.81;5316744;23;20237;-92
2021/01/27 10:58:52;;;;;;;1.67;1.57;;;;;;;0.92;100.00;95080.47;4921512;29;20691;-93
2021/01/27 11:01:18;;;;;;;2.17;1.57;;;;;;;1.07;100.00;95084.34;4918652;29;20290;-93
2021/01/27 11:03:45;;;;;;;2.43;2.10;;;;;;;1.16;100.00;95072.41;4920219;29;20203;-92
2021/01/27 11:06:12;;;;;;;2.37;2.17;;;;;;;1.38;100.00;95066.22;4920199;29;20203;-92
2021/01/27 11:08:42;;;;;;;1.93;1.57;;;;;;;1.95;100.00;95069.88;4919785;29;20231;-92
2021/01/27 11:11:09;;;;;;;3.93;2.20;;;;;;;2.19;100.00;95069.50;4920358;29;20199;-92
2021/01/27 11:13:36;;;;;;;3.37;2.57;;;;;;;2.24;100.00;95069.88;4919958;29;20199;-91
2021/01/27 11:16:06;;;;;;;3.73;2.37;;;;;;;1.98;100.00;95068.81;4920309;29;20199;-92
2021/01/27 11:18:33;;;;;;;2.43;2.23;;;;;;;1.64;100.00;95067.38;4919716;29;20208;-91
2021/01/27 11:21:00;;;;;;;2.40;2.20;;;;;;;2.16;100.00;95074.13;4919839;29;20681;-90
2021/01/27 11:23:28;;;;;;;3.43;2.90;;;;;;;1.99;100.00;95071.25;4919878;29;20215;-89
2021/01/27 11:25:55;;;;;;;4.10;3.70;;;;;;;1.61;100.00;95077.19;4919921;29;20238;-89
2021/01/27 11:28:24;;;;;;;2.67;2.47;;;;;;;1.30;100.00;95082.41;4919582;29;20258;-88
2021/01/27 11:30:51;;;;;;;4.07;3.60;;;;;;;1.31;100.00;95070.28;4919838;29;20278;-89
2021/01/27 11:33:18;;;;;;;4.20;3.80;;;;;;;1.45;100.00;95066.50;4919817;29;20583;-89
2021/01/27 11:35:45;;;;;;;4.83;4.00;;;;;;;1.35;100.00;95074.25;4919660;29;20628;-88
2021/01/27 11:38:12;;;;;;;4.43;2.70;;;;;;;1.13;100.00;95075.25;4919739;29;20225;-88
2021/01/27 11:40:39;;;;;;;4.90;3.90;;;;;;;1.25;100.00;95070.81;4919628;29;20672;-89
2021/01/27 11:43:07;;;;;;;4.37;3.97;;;;;;;1.04;100.00;95068.28;4919418;29;20591;-89
2021/01/27 11:45:34;;;;;;;3.73;3.43;;;;;;;0.89;100.00;95071.19;4919486;29;20203;-89
2021/01/27 11:48:01;;;;;;;5.07;3.57;;;;;;;0.91;100.00;95076.28;4919277;29;20680;-89
2021/01/27 11:50:30;;;;;;;3.83;3.10;;;;;;;0.84;100.00;95086.31;4919514;29;20203;-89
2021/01/27 11:52:57;;;;;;;3.97;3.00;;;;;;;0.82;100.00;95085.59;4919189;29;20216;-89
2021/01/27 11:55:24;;;;;;;4.67;3.80;;;;;;;1.02;100.00;95081.34;4919494;29;20727;-89
2021/01/27 11:57:51;;;;;;;3.20;2.90;;;;;;;0.76;100.00;95082.69;4919382;29;20610;-89
2021/01/27 12:00:21;;;;;;;3.50;3.20;;;;;;;0.69;100.00;95079.81;4919101;29;20242;-90
2021/01/27 12:02:48;;;;;;;5.87;3.70;;;;;;;0.70;100.00;95078.88;4919157;29;20680;-90
2021/01/27 12:05:17;;;;;;;4.80;3.70;;;;;;;0.78;100.00;95088.59;4919415;29;20584;-91
2021/01/27 12:07:44;;;;;;;4.63;4.10;;;;;;;0.66;100.00;95082.69;4919249;29;20205;-88
2021/01/27 12:10:11;;;;;;;3.60;2.90;;;;;;;0.73;100.00;95081.22;4919037;29;20267;-91
2021/01/27 12:12:38;;;;;;;3.73;3.40;;;;;;;0.95;100.00;95082.81;4917681;29;20210;-90
2021/01/27 12:15:06;;;;;;;4.57;3.43;;;;;;;0.95;100.00;95077.66;4919269;29;20622;-89